Time;durP1;ratioP1;P1;durP2;ratioP2;P2;SDS_P1;SDS_P2;PMS_P1;PMS_P2;Temp;Humidity;BMP_temperature;BMP_pressure;BME280_temperature;BME280_humidity;BME280_pressure;Samples;Min_cycle;Max_cycle;Signal;HPM_P1;HPM_P2
2023/06/23 00:03:19;;;;;;;3.20;2.90;;;;;;;21.79;64.67;99878.56;10386808;28;20045;-53
2023/06/23 00:08:20;;;;;;;3.90;3.15;;;;;;;21.82;65.01;99878.13;10384897;28;20099;-54
2023/06/23 00:13:22;;;;;;;2.80;2.47;;;;;;;21.85;65.12;99864.16;10380711;28;20418;-53
2023/06/23 00:18:24;;;;;;;3.28;2.60;;;;;;;21.96;64.73;99883.56;10388985;28;20052;-54
2023/06/23 00:23:25;;;;;;;2.63;2.42;;;;;;;21.53;65.64;99877.47;10384567;28;20091;-54
2023/06/23 00:28:27;;;;;;;3.13;2.83;;;;;;;21.55;65.74;99869.13;10387149;28;20126;-55
2023/06/23 00:33:29;;;;;;;2.72;2.53;;;;;;;21.53;65.18;99891.00;10385795;28;20052;-53
2023/06/23 00:38:30;;;;;;;2.40;2.10;;;;;;;21.34;64.17;99919.63;10383247;28;20298;-53
2023/06/23 00:43:32;;;;;;;2.05;1.75;;;;;;;21.26;63.76;99916.25;10378482;28;20070;-54
2023/06/23 00:48:33;;;;;;;2.25;2.05;;;;;;;21.22;64.21;99926.66;10384418;28;20719;-54
2023/06/23 00:53:35;;;;;;;2.30;1.80;;;;;;;21.21;62.94;99932.28;10382034;28;20676;-54
2023/06/23 00:58:37;;;;;;;2.30;2.10;;;;;;;21.37;62.95;99940.88;10384112;28;20053;-53
2023/06/23 01:03:40;;;;;;;2.92;2.58;;;;;;;21.25;61.98;99947.09;10388333;28;20893;-53
2023/06/23 01:08:50;;;;;;;2.85;2.53;;;;;;;21.00;62.89;99958.41;10389317;28;20057;-54
2023/06/23 01:13:58;;;;;;;3.55;2.60;;;;;;;20.89;62.73;99950.84;10385776;28;20055;-53
2023/06/23 01:19:27;;;;;;;4.00;2.95;;;;;;;20.94;63.51;99984.41;10382898;28;20069;-53
2023/06/23 01:24:47;;;;;;;3.28;2.22;;;;;;;21.20;61.54;99993.72;10391065;28;20055;-54
2023/06/23 01:29:52;;;;;;;2.83;2.53;;;;;;;21.28;62.34;100017.06;10390060;28;20045;-53
2023/06/23 01:35:02;;;;;;;2.72;2.50;;;;;;;21.22;61.92;100015.16;10393600;28;20151;-53
2023/06/23 01:40:17;;;;;;;3.90;2.30;;;;;;;21.05;63.28;100025.44;10392127;28;20041;-56
2023/06/23 01:45:22;;;;;;;2.80;2.50;;;;;;;21.15;63.01;100037.63;10398066;28;20032;-54
2023/06/23 01:50:23;;;;;;;2.40;2.20;;;;;;;21.17;62.79;100035.53;10386932;28;20060;-53
2023/06/23 01:55:27;;;;;;;2.40;2.20;;;;;;;21.22;62.94;100042.22;10392740;28;20045;-54
2023/06/23 02:00:28;;;;;;;;;;;;;;;21.18;62.07;100050.75;10393522;28;20147;-54
2023/06/23 02:05:32;;;;;;;2.58;2.30;;;;;;;21.19;62.16;100052.41;10387486;28;19924;-53
2023/06/23 02:10:35;;;;;;;2.92;2.63;;;;;;;21.15;62.34;100048.44;10386744;28;20099;-54
2023/06/23 02:15:38;;;;;;;;;;;;;;;21.20;61.87;100042.44;10392645;28;20525;-53
2023/06/23 02:20:42;;;;;;;3.90;2.80;;;;;;;21.16;62.47;100055.50;10391291;28;19925;-53
2023/06/23 02:25:44;;;;;;;3.70;3.40;;;;;;;21.15;62.09;100056.56;10393135;28;20252;-54
2023/06/23 02:30:46;;;;;;;3.65;3.30;;;;;;;21.23;61.78;100062.81;10391145;28;20368;-54
2023/06/23 02:35:53;;;;;;;3.95;3.20;;;;;;;21.26;61.49;100070.53;10393049;28;20064;-52
2023/06/23 02:40:56;;;;;;;3.35;3.05;;;;;;;21.28;61.42;100069.31;10385941;28;20060;-53
2023/06/23 02:46:01;;;;;;;3.58;3.25;;;;;;;21.16;60.89;100073.63;10391750;28;20088;-54
2023/06/23 02:51:03;;;;;;;3.45;3.15;;;;;;;21.02;60.71;100088.94;10391775;28;20057;-54
2023/06/23 02:56:11;;;;;;;4.25;3.85;;;;;;;20.89;61.27;100086.09;10395698;28;20049;-54
2023/06/23 03:01:14;;;;;;;3.88;3.47;;;;;;;20.88;61.79;100089.84;10386906;28;20049;-53
2023/06/23 03:06:18;;;;;;;4.00;3.70;;;;;;;20.92;61.92;100094.66;10383577;28;20426;-53
2023/06/23 03:11:20;;;;;;;4.00;3.60;;;;;;;20.98;61.71;100106.56;10405825;28;20060;-53
2023/06/23 03:16:46;;;;;;;4.75;3.67;;;;;;;20.69;62.04;100119.22;10391543;28;20143;-54
2023/06/23 03:22:10;;;;;;;4.47;4.07;;;;;;;20.86;61.88;100127.06;10389777;28;20042;-53
2023/06/23 03:27:13;;;;;;;3.78;3.47;;;;;;;20.85;61.61;100120.81;10382708;28;20056;-53
2023/06/23 03:32:28;;;;;;;4.90;4.30;;;;;;;20.67;61.84;100115.84;10407885;28;20103;-54
2023/06/23 03:37:33;;;;;;;5.13;4.20;;;;;;;20.63;62.53;100117.25;10393111;28;20045;-53
2023/06/23 03:42:39;;;;;;;4.30;3.92;;;;;;;20.55;62.79;100117.38;10393180;28;20465;-52
2023/06/23 03:47:44;;;;;;;3.92;3.58;;;;;;;20.36;62.74;100103.47;10388862;28;20268;-53
2023/06/23 03:52:48;;;;;;;3.90;3.50;;;;;;;20.46;63.12;100122.91;10383970;28;20041;-53
2023/06/23 03:57:52;;;;;;;3.88;3.50;;;;;;;20.55;62.29;100122.78;10388618;28;20056;-53
2023/06/23 04:02:54;;;;;;;3.63;3.33;;;;;;;20.68;61.99;100133.75;10392041;28;20628;-52
2023/06/23 04:08:00;;;;;;;3.45;3.15;;;;;;;20.57;61.73;100151.31;10390738;28;20088;-52
2023/06/23 04:13:03;;;;;;;4.82;4.43;;;;;;;20.39;62.81;100165.25;10387337;28;20615;-53
2023/06/23 04:18:08;;;;;;;4.53;4.10;;;;;;;20.37;62.96;100164.63;10388449;28;20048;-53
2023/06/23 04:23:10;;;;;;;4.30;3.90;;;;;;;20.42;62.90;100175.69;10391848;28;20408;-53
2023/06/23 04:28:14;;;;;;;4.17;3.87;;;;;;;20.43;63.28;100181.91;10392395;28;20311;-52
2023/06/23 04:33:16;;;;;;;4.53;4.13;;;;;;;20.44;62.54;100206.06;10388590;28;20055;-53
2023/06/23 04:38:24;;;;;;;4.43;4.07;;;;;;;20.45;63.10;100206.91;10389185;28;20060;-52
2023/06/23 04:43:31;;;;;;;4.10;3.72;;;;;;;20.40;62.66;100214.72;10383707;28;20544;-52
2023/06/23 04:48:40;;;;;;;4.78;4.30;;;;;;;20.38;62.87;100230.31;10384862;28;20052;-53
2023/06/23 04:53:49;;;;;;;3.92;3.63;;;;;;;20.42;63.10;100232.44;10387604;28;20054;-52
2023/06/23 04:58:57;;;;;;;4.35;3.95;;;;;;;20.36;63.22;100235.09;10391196;28;20190;-53
2023/06/23 05:04:01;;;;;;;4.50;4.10;;;;;;;20.38;63.26;100233.84;10396380;28;20147;-52
2023/06/23 05:09:04;;;;;;;4.75;4.07;;;;;;;20.29;63.27;100248.50;10395050;28;20464;-53
2023/06/23 05:14:07;;;;;;;5.53;4.43;;;;;;;20.21;63.84;100245.91;10372663;28;20213;-54
2023/06/23 05:19:10;;;;;;;4.35;4.03;;;;;;;20.29;63.12;100241.22;10379230;28;20055;-58
2023/06/23 05:24:15;;;;;;;3.42;3.17;;;;;;;20.33;63.39;100257.06;10374360;28;20100;-58
2023/06/23 05:29:19;;;;;;;5.07;4.00;;;;;;;20.20;63.10;100252.31;10380130;28;20049;-58
2023/06/23 05:34:23;;;;;;;4.47;3.70;;;;;;;20.11;63.38;100263.22;10387943;28;20753;-58
2023/06/23 05:39:27;;;;;;;4.38;3.45;;;;;;;20.22;63.65;100266.47;10384674;28;20056;-58
2023/06/23 05:44:28;;;;;;;4.32;3.92;;;;;;;20.09;63.65;100276.06;10387362;28;20045;-58
2023/06/23 05:49:37;;;;;;;7.15;4.20;;;;;;;20.31;63.20;100286.97;10373244;28;20057;-59
2023/06/23 05:54:44;;;;;;;4.00;3.60;;;;;;;20.18;63.23;100305.72;10387349;28;20073;-62
2023/06/23 05:59:56;;;;;;;6.10;4.65;;;;;;;20.02;63.88;100298.63;10382930;28;20072;-57
2023/06/23 06:05:00;;;;;;;4.35;3.95;;;;;;;20.01;64.09;100324.81;10375052;28;20052;-57
2023/06/23 06:10:04;;;;;;;4.65;4.28;;;;;;;20.25;63.30;100329.13;10380462;28;20064;-57
2023/06/23 06:15:08;;;;;;;5.30;4.80;;;;;;;20.39;62.88;100334.72;10377662;28;20568;-57
2023/06/23 06:20:13;;;;;;;5.00;4.47;;;;;;;20.39;61.79;100348.25;10380756;28;20045;-57
2023/06/23 06:25:15;;;;;;;5.32;4.47;;;;;;;20.59;61.21;100365.56;10369752;28;20090;-58
2023/06/23 06:30:17;;;;;;;4.68;4.28;;;;;;;20.43;60.69;100377.41;10373244;28;20125;-57
2023/06/23 06:35:22;;;;;;;4.13;3.53;;;;;;;20.56;60.84;100389.44;10376804;28;21384;-56
2023/06/23 06:40:26;;;;;;;4.28;3.90;;;;;;;20.60;59.54;100388.88;10378850;28;20100;-56
2023/06/23 06:45:28;;;;;;;5.00;4.22;;;;;;;20.54;60.83;100405.84;10370807;28;21250;-57
2023/06/23 06:50:32;;;;;;;4.50;4.05;;;;;;;20.52;61.73;100401.66;10375561;28;20049;-57
2023/06/23 06:55:35;;;;;;;4.95;4.53;;;;;;;20.67;60.09;100407.94;10381339;28;20758;-58
2023/06/23 07:00:36;;;;;;;6.68;4.78;;;;;;;20.62;60.65;100426.56;10376111;28;20123;-57
2023/06/23 07:05:38;;;;;;;5.78;4.60;;;;;;;20.70;60.69;100431.91;10376677;28;20056;-57
2023/06/23 07:10:40;;;;;;;5.40;3.85;;;;;;;20.89;59.71;100445.91;10369961;28;20079;-57
2023/06/23 07:15:42;;;;;;;5.97;5.38;;;;;;;21.20;57.99;100437.59;10346484;28;20756;-58
2023/06/23 07:20:45;;;;;;;5.03;4.47;;;;;;;21.36;57.47;100450.06;10368946;28;20057;-56
2023/06/23 07:25:47;;;;;;;5.05;4.10;;;;;;;21.31;57.65;100456.03;10368064;28;20835;-57
2023/06/23 07:30:49;;;;;;;4.53;4.13;;;;;;;21.32;57.63;100451.50;10378241;28;20217;-58
2023/06/23 07:35:51;;;;;;;4.20;3.80;;;;;;;21.52;56.54;100449.88;10373665;28;20090;-57
2023/06/23 07:40:53;;;;;;;4.95;4.43;;;;;;;21.56;56.68;100463.03;10375598;28;20068;-57
2023/06/23 07:45:55;;;;;;;8.02;4.85;;;;;;;21.59;57.25;100471.63;10378516;28;20080;-48
2023/06/23 07:50:56;;;;;;;5.03;4.45;;;;;;;21.83;56.26;100481.28;10382594;28;20057;-48
2023/06/23 07:55:58;;;;;;;5.97;5.15;;;;;;;21.81;56.65;100491.47;10366123;28;20182;-49
2023/06/23 08:00:59;;;;;;;6.75;4.93;;;;;;;21.92;55.77;100500.09;10374273;28;21682;-49
2023/06/23 08:06:01;;;;;;;4.65;4.20;;;;;;;21.67;55.37;100493.16;10370131;28;20478;-49
2023/06/23 08:11:02;;;;;;;4.60;4.20;;;;;;;21.64;55.46;100508.97;10377764;28;20053;-51
2023/06/23 08:16:04;;;;;;;4.25;3.85;;;;;;;21.62;56.01;100511.00;10368394;28;20065;-49
2023/06/23 08:21:06;;;;;;;7.53;4.40;;;;;;;22.00;54.85;100513.56;10370742;28;20280;-49
2023/06/23 08:26:07;;;;;;;5.85;4.07;;;;;;;22.18;53.72;100532.09;10367833;28;20048;-49
2023/06/23 08:31:09;;;;;;;4.70;4.13;;;;;;;22.13;53.84;100527.25;10370988;28;20753;-49
2023/06/23 08:36:10;;;;;;;5.68;4.50;;;;;;;21.99;53.37;100525.41;10374602;28;20663;-48
2023/06/23 08:41:12;;;;;;;4.70;4.30;;;;;;;22.18;53.56;100549.19;10377852;28;20442;-48
2023/06/23 08:46:15;;;;;;;4.90;4.43;;;;;;;22.63;52.53;100545.47;10378714;28;20048;-59
2023/06/23 08:51:17;;;;;;;5.13;4.72;;;;;;;22.51;52.16;100562.25;10385311;28;20057;-57
2023/06/23 08:56:20;;;;;;;6.55;4.47;;;;;;;22.20;51.67;100555.28;10377895;28;21045;-57
2023/06/23 09:01:21;;;;;;;4.65;4.22;;;;;;;22.18;51.77;100568.16;10379370;28;20057;-57
2023/06/23 09:06:23;;;;;;;4.88;4.47;;;;;;;22.22;51.41;100558.63;10377844;28;20060;-58
2023/06/23 09:11:25;;;;;;;4.85;4.35;;;;;;;22.41;50.61;100578.00;10375841;28;20078;-57
2023/06/23 09:16:27;;;;;;;4.93;4.43;;;;;;;22.20;50.56;100584.22;10376494;28;20064;-50
2023/06/23 09:21:29;;;;;;;4.13;3.78;;;;;;;22.49;50.82;100585.19;10382233;28;20057;-57
2023/06/23 09:26:50;;;;;;;4.32;3.97;;;;;;;22.75;49.83;100609.00;10377724;28;20140;-57
2023/06/23 09:31:53;;;;;;;4.15;3.60;;;;;;;22.58;48.80;100601.13;10366098;28;22135;-57
2023/06/23 09:37:12;;;;;;;3.80;3.35;;;;;;;22.69;49.12;100609.78;10377849;28;20888;-57
2023/06/23 09:42:13;;;;;;;4.18;3.88;;;;;;;22.87;49.47;100602.00;10376141;28;20064;-57
2023/06/23 09:47:18;;;;;;;6.55;4.07;;;;;;;22.75;50.06;100614.44;10372767;28;20053;-56
2023/06/23 09:52:27;;;;;;;4.70;4.00;;;;;;;22.79;49.67;100618.44;10383601;28;20709;-57
2023/06/23 09:57:30;;;;;;;4.82;3.90;;;;;;;23.14;47.94;100628.59;10377723;28;21348;-58
2023/06/23 10:02:32;;;;;;;4.70;4.30;;;;;;;23.06;48.34;100633.09;10377834;28;20063;-57
2023/06/23 10:07:35;;;;;;;4.68;3.88;;;;;;;22.97;48.42;100627.97;10381011;28;20654;-57
2023/06/23 10:12:39;;;;;;;4.70;4.18;;;;;;;22.71;49.31;100640.28;10365064;28;20049;-58
2023/06/23 10:17:41;;;;;;;3.85;3.55;;;;;;;22.86;47.60;100651.06;10373255;28;20697;-57
2023/06/23 10:22:44;;;;;;;4.00;3.60;;;;;;;23.16;46.62;100654.47;10377888;28;20056;-57
2023/06/23 10:27:49;;;;;;;3.25;2.95;;;;;;;23.47;46.05;100664.13;10375911;28;20048;-57
2023/06/23 10:32:55;;;;;;;3.83;3.03;;;;;;;23.51;46.67;100659.97;10369863;28;20060;-51
2023/06/23 10:38:04;;;;;;;5.32;2.90;;;;;;;23.50;46.70;100658.28;10384980;28;20060;-52
2023/06/23 10:43:07;;;;;;;3.67;3.17;;;;;;;23.41;44.92;100651.34;10378244;28;20056;-52
2023/06/23 10:48:08;;;;;;;4.85;3.17;;;;;;;23.44;44.35;100673.50;10377468;28;20053;-52
2023/06/23 10:53:18;;;;;;;3.30;2.97;;;;;;;23.24;44.87;100677.94;10375601;28;20045;-53
2023/06/23 10:58:19;;;;;;;5.30;3.72;;;;;;;23.14;45.30;100682.88;10381787;28;20773;-53
2023/06/23 11:03:27;;;;;;;4.13;3.20;;;;;;;23.04;46.72;100702.16;10377744;28;20057;-51
2023/06/23 11:08:36;;;;;;;3.58;2.92;;;;;;;23.01;47.71;100689.81;10382655;28;20056;-52
2023/06/23 11:13:42;;;;;;;4.30;2.72;;;;;;;22.99;47.38;100702.75;10382294;28;20061;-51
2023/06/23 11:18:52;;;;;;;5.28;2.80;;;;;;;22.99;46.67;100713.63;10373810;28;20056;-57
2023/06/23 11:24:10;;;;;;;4.65;3.72;;;;;;;22.80;47.76;100703.41;10382503;28;20619;-58
2023/06/23 11:29:14;;;;;;;4.32;3.33;;;;;;;23.06;47.38;100713.66;10375999;28;20041;-57
2023/06/23 11:34:18;;;;;;;4.28;2.80;;;;;;;23.23;45.71;100709.69;10372377;28;20154;-57
2023/06/23 11:39:19;;;;;;;4.60;2.90;;;;;;;23.19;45.60;100732.81;10373051;28;21014;-58
2023/06/23 11:44:21;;;;;;;3.65;2.90;;;;;;;23.10;46.56;100717.72;10377068;28;20057;-57
2023/06/23 11:49:23;;;;;;;3.55;2.60;;;;;;;23.26;46.14;100728.31;10374466;28;20052;-58
2023/06/23 11:54:25;;;;;;;3.20;2.90;;;;;;;23.36;44.18;100714.41;10373597;28;20044;-57
2023/06/23 11:59:32;;;;;;;2.92;2.50;;;;;;;23.46;43.16;100730.34;10376579;28;20186;-57
2023/06/23 12:04:39;;;;;;;2.83;2.42;;;;;;;23.68;42.80;100733.03;10373610;28;20359;-57
2023/06/23 12:09:40;;;;;;;2.55;2.22;;;;;;;23.90;43.77;100747.41;10375007;28;20919;-57
2023/06/23 12:14:43;;;;;;;2.35;2.13;;;;;;;24.01;42.84;100744.13;10376256;28;20098;-57
2023/06/23 12:19:44;;;;;;;2.37;2.00;;;;;;;24.15;42.99;100745.03;10356260;28;20053;-57
2023/06/23 12:24:49;;;;;;;3.40;2.00;;;;;;;24.17;42.83;100742.97;10378038;28;20057;-58
2023/06/23 12:29:51;;;;;;;2.92;2.22;;;;;;;24.29;42.46;100733.19;10372941;28;20061;-56
2023/06/23 12:34:54;;;;;;;2.58;2.15;;;;;;;24.50;42.25;100731.38;10373935;28;20151;-59
2023/06/23 12:39:56;;;;;;;2.13;1.90;;;;;;;24.81;41.98;100735.50;10375039;28;20175;-57
2023/06/23 12:44:58;;;;;;;2.88;2.17;;;;;;;25.08;41.08;100722.75;10382954;28;20493;-58
2023/06/23 12:50:06;;;;;;;2.05;1.85;;;;;;;25.34;40.31;100726.56;10378407;28;20379;-57
2023/06/23 12:55:07;;;;;;;3.97;2.40;;;;;;;25.56;39.93;100725.28;10383189;28;20396;-57
2023/06/23 13:00:10;;;;;;;4.35;2.08;;;;;;;25.63;35.90;100714.41;10380263;28;20099;-57
2023/06/23 13:05:12;;;;;;;2.00;1.80;;;;;;;25.61;37.22;100715.66;10371971;28;20102;-57
2023/06/23 13:10:13;;;;;;;3.03;2.15;;;;;;;25.83;37.34;100708.06;10377789;28;20060;-57
2023/06/23 13:15:15;;;;;;;4.05;2.05;;;;;;;25.97;37.35;100723.31;10386695;28;20184;-57
2023/06/23 13:20:18;;;;;;;;;;;;;;;26.00;37.61;100714.78;10367268;28;20053;-57
2023/06/23 13:25:19;;;;;;;2.33;2.00;;;;;;;25.71;38.75;100721.50;10385174;28;19932;-57
2023/06/23 13:30:21;;;;;;;3.92;1.92;;;;;;;25.72;39.14;100734.94;10386303;28;21507;-57
2023/06/23 13:35:23;;;;;;;2.35;2.03;;;;;;;25.62;39.01;100739.97;10379413;28;20053;-57
2023/06/23 13:40:26;;;;;;;3.17;2.20;;;;;;;25.51;39.02;100743.34;10363265;28;20048;-58
2023/06/23 13:45:27;;;;;;;2.00;1.80;;;;;;;25.75;38.76;100739.13;10386319;28;20168;-57
2023/06/23 13:50:30;;;;;;;2.58;1.73;;;;;;;25.96;37.56;100732.59;10386240;28;20150;-57
2023/06/23 13:55:31;;;;;;;3.95;1.85;;;;;;;26.01;37.39;100731.97;10385146;28;20498;-58
2023/06/23 14:00:34;;;;;;;2.07;1.87;;;;;;;25.95;38.29;100755.44;10390542;28;20134;-57
2023/06/23 14:05:35;;;;;;;2.97;2.67;;;;;;;25.79;38.52;100748.53;10380646;28;20278;-58
2023/06/23 14:10:52;;;;;;;2.50;2.25;;;;;;;25.89;39.29;100743.50;10384988;28;20049;-57
2023/06/23 14:15:53;;;;;;;3.10;1.80;;;;;;;26.01;37.85;100743.72;10382316;28;20178;-57
2023/06/23 14:20:55;;;;;;;2.22;2.03;;;;;;;26.08;38.60;100743.72;10380951;28;20992;-62
2023/06/23 14:25:58;;;;;;;2.35;1.60;;;;;;;26.14;37.79;100729.19;10387655;28;20053;-57
2023/06/23 14:31:00;;;;;;;2.60;1.65;;;;;;;26.14;38.25;100752.91;10384918;28;20130;-58
2023/06/23 14:36:01;;;;;;;2.20;1.92;;;;;;;26.13;38.99;100749.34;10376333;28;20053;-58
2023/06/23 14:41:03;;;;;;;4.13;1.92;;;;;;;26.07;38.86;100740.13;10386254;28;20128;-57
2023/06/23 14:46:04;;;;;;;3.35;1.70;;;;;;;26.08;38.33;100749.16;10380321;28;20053;-58
2023/06/23 14:51:06;;;;;;;3.08;1.67;;;;;;;25.81;38.65;100754.63;10381181;28;20129;-58
2023/06/23 14:56:11;;;;;;;2.95;1.90;;;;;;;25.76;38.53;100760.72;10382369;28;20041;-58
2023/06/23 15:01:13;;;;;;;3.13;2.33;;;;;;;25.70;39.21;100760.72;10379614;28;20048;-58
2023/06/23 15:06:15;;;;;;;3.20;2.05;;;;;;;25.73;38.71;100758.44;10378460;28;20055;-57
2023/06/23 15:11:17;;;;;;;2.90;1.90;;;;;;;25.69;39.70;100762.63;10380650;28;20056;-59
2023/06/23 15:16:18;;;;;;;2.75;2.08;;;;;;;25.76;39.65;100758.00;10384178;28;20182;-58
2023/06/23 15:21:20;;;;;;;3.58;1.77;;;;;;;25.81;40.08;100764.72;10378687;28;20057;-58
2023/06/23 15:26:22;;;;;;;2.08;1.80;;;;;;;25.77;39.35;100764.28;10378821;28;20176;-57
2023/06/23 15:31:23;;;;;;;3.15;1.80;;;;;;;25.77;40.17;100758.81;10382636;28;20157;-58
2023/06/23 15:36:25;;;;;;;2.42;1.98;;;;;;;25.90;39.82;100760.72;10371907;28;20052;-51
2023/06/23 15:41:26;;;;;;;3.20;1.85;;;;;;;25.93;38.61;100763.00;10379142;28;20823;-53
2023/06/23 15:46:28;;;;;;;2.35;1.90;;;;;;;25.94;39.30;100770.13;10382794;28;20087;-52
2023/06/23 15:51:29;;;;;;;3.15;2.05;;;;;;;26.00;37.69;100763.88;10377810;28;20842;-56
2023/06/23 15:56:31;;;;;;;2.38;2.00;;;;;;;25.92;38.43;100756.69;10387112;28;20189;-48
2023/06/23 16:01:32;;;;;;;1.90;1.80;;;;;;;25.92;39.07;100761.31;10378831;28;20053;-49
2023/06/23 16:06:35;;;;;;;2.22;2.03;;;;;;;25.93;38.24;100768.47;10378346;28;20056;-49
2023/06/23 16:11:37;;;;;;;2.95;2.05;;;;;;;25.91;39.19;100765.09;10379873;28;20167;-57
2023/06/23 16:16:38;;;;;;;4.07;2.35;;;;;;;25.84;39.16;100769.75;10385417;28;20144;-57
2023/06/23 16:21:47;;;;;;;2.45;2.13;;;;;;;25.86;39.37;100767.63;10381642;28;20048;-52
2023/06/23 16:26:49;;;;;;;5.53;2.55;;;;;;;25.79;40.09;100778.53;10385801;28;20053;-52
2023/06/23 16:31:51;;;;;;;2.40;2.17;;;;;;;25.80;39.77;100779.38;10388001;28;20060;-57
2023/06/23 16:36:52;;;;;;;2.83;2.53;;;;;;;25.70;39.85;100780.66;10381636;28;20458;-57
2023/06/23 16:41:58;;;;;;;2.55;2.30;;;;;;;25.75;40.37;100775.41;10387964;28;20064;-58
2023/06/23 16:47:02;;;;;;;3.75;2.28;;;;;;;25.77;39.87;100784.19;10378187;28;20112;-58
2023/06/23 16:52:04;;;;;;;3.45;2.65;;;;;;;25.75;40.28;100777.28;10378632;28;20138;-57
2023/06/23 16:57:06;;;;;;;2.97;2.30;;;;;;;25.85;40.13;100771.41;10395485;28;20528;-58
2023/06/23 17:02:10;;;;;;;2.97;2.67;;;;;;;26.00;40.11;100774.78;10394991;28;20068;-60
2023/06/23 17:07:12;;;;;;;3.22;2.05;;;;;;;26.01;40.35;100775.59;10398716;28;20056;-57
2023/06/23 17:12:13;;;;;;;2.95;2.42;;;;;;;25.99;40.19;100784.00;10391680;28;20052;-60
2023/06/23 17:17:20;;;;;;;3.40;2.80;;;;;;;26.00;40.00;100785.69;10390796;28;20061;-58
2023/06/23 17:22:22;;;;;;;2.37;2.17;;;;;;;26.04;39.65;100797.81;10388341;28;20644;-57
2023/06/23 17:27:24;;;;;;;4.15;2.80;;;;;;;26.05;40.16;100799.50;10391206;28;20140;-58
2023/06/23 17:32:26;;;;;;;3.05;2.17;;;;;;;26.00;39.74;100807.50;10394416;28;20044;-58
2023/06/23 17:37:27;;;;;;;4.18;2.65;;;;;;;25.86;40.18;100813.97;10393803;28;20049;-58
2023/06/23 17:42:29;;;;;;;3.13;2.30;;;;;;;25.86;40.66;100811.25;10395320;28;20115;-57
2023/06/23 17:47:31;;;;;;;2.88;2.33;;;;;;;25.86;40.49;100811.25;10391959;28;20050;-57
2023/06/23 17:52:32;;;;;;;2.83;2.55;;;;;;;25.80;41.01;100812.09;10387298;28;20057;-58
2023/06/23 17:57:34;;;;;;;4.43;2.88;;;;;;;25.75;41.49;100819.03;10392086;28;20187;-58
2023/06/23 18:02:35;;;;;;;3.10;2.75;;;;;;;25.75;41.89;100818.19;10392560;28;20045;-58
2023/06/23 18:07:37;;;;;;;3.83;2.80;;;;;;;25.70;42.10;100809.78;10380721;28;20056;-57
2023/06/23 18:12:39;;;;;;;3.38;2.35;;;;;;;25.64;42.39;100816.94;10383300;28;20573;-58
2023/06/23 18:17:40;;;;;;;3.97;2.83;;;;;;;25.64;42.28;100822.41;10391238;28;20118;-59
2023/06/23 18:22:43;;;;;;;3.00;2.45;;;;;;;25.54;42.39;100830.97;10393781;28;20742;-57
2023/06/23 18:27:46;;;;;;;4.10;2.87;;;;;;;25.49;42.29;100838.09;10385588;28;20889;-58
2023/06/23 18:32:47;;;;;;;4.25;2.88;;;;;;;25.41;42.97;100841.84;10389221;28;20156;-58
2023/06/23 18:37:49;;;;;;;3.40;2.60;;;;;;;25.35;43.16;100838.06;10384383;28;20049;-59
2023/06/23 18:42:51;;;;;;;3.17;2.70;;;;;;;25.31;43.75;100842.28;10382069;28;20087;-57
2023/06/23 18:47:52;;;;;;;3.63;2.92;;;;;;;25.20;43.56;100837.38;10387088;28;20292;-57
2023/06/23 18:52:54;;;;;;;3.58;2.63;;;;;;;25.17;44.48;100840.53;10395693;28;20049;-58
2023/06/23 18:57:56;;;;;;;2.65;2.45;;;;;;;25.09;43.72;100832.56;10392301;28;20086;-58
2023/06/23 19:02:57;;;;;;;3.72;2.20;;;;;;;25.01;43.46;100844.44;10400486;28;20692;-58
2023/06/23 19:07:59;;;;;;;3.38;3.08;;;;;;;24.81;43.62;100847.94;10393116;28;20601;-57
2023/06/23 19:13:01;;;;;;;4.60;3.00;;;;;;;24.81;44.48;100852.56;10393117;28;20048;-58
2023/06/23 19:18:03;;;;;;;3.00;2.67;;;;;;;24.80;45.42;100861.75;10393358;28;20702;-57
2023/06/23 19:23:05;;;;;;;3.00;2.70;;;;;;;24.72;44.91;100857.31;10381552;28;20053;-57
2023/06/23 19:28:07;;;;;;;3.45;3.15;;;;;;;24.69;44.88;100858.56;10394281;28;20134;-58
2023/06/23 19:33:08;;;;;;;4.50;4.10;;;;;;;24.62;45.93;100865.88;10385038;28;20053;-57
2023/06/23 19:38:10;;;;;;;3.85;3.47;;;;;;;24.57;46.49;100887.34;10373737;28;20044;-57
2023/06/23 19:43:11;;;;;;;6.05;3.55;;;;;;;24.49;47.04;100882.91;10393217;28;20053;-57
2023/06/23 19:48:13;;;;;;;4.72;3.72;;;;;;;24.39;47.16;100897.94;10393660;28;20049;-57
2023/06/23 19:53:14;;;;;;;3.40;3.10;;;;;;;24.32;47.88;100901.44;10391307;28;20049;-57
2023/06/23 19:58:18;;;;;;;3.45;3.15;;;;;;;24.26;47.76;100921.28;10391209;28;20154;-58
2023/06/23 20:03:20;;;;;;;4.22;3.70;;;;;;;24.20;48.15;100922.09;10391820;28;20239;-58
2023/06/23 20:08:22;;;;;;;5.50;3.43;;;;;;;24.07;48.44;100922.81;10399621;28;20064;-58
2023/06/23 20:13:24;;;;;;;4.53;4.05;;;;;;;24.07;48.97;100932.84;10393578;28;20041;-57
2023/06/23 20:18:25;;;;;;;6.88;3.38;;;;;;;24.00;49.34;100938.22;10389621;28;20049;-58
2023/06/23 20:23:29;;;;;;;3.70;3.33;;;;;;;23.94;49.25;100942.53;10386303;28;20128;-58
2023/06/23 20:28:31;;;;;;;5.20;3.58;;;;;;;23.81;49.22;100940.53;10388984;28;20068;-58
2023/06/23 20:33:32;;;;;;;4.00;3.42;;;;;;;23.77;49.60;100943.84;10388525;28;20064;-57
2023/06/23 20:38:34;;;;;;;4.57;3.78;;;;;;;23.72;49.82;100946.28;10389318;28;20992;-61
2023/06/23 20:43:36;;;;;;;4.35;3.95;;;;;;;23.68;50.06;100955.88;10391002;28;20147;-58
2023/06/23 20:48:39;;;;;;;4.28;3.30;;;;;;;23.56;50.10;100953.66;10402542;28;20087;-58
2023/06/23 20:53:43;;;;;;;3.67;3.38;;;;;;;23.50;50.56;100954.41;10387706;28;20052;-57
2023/06/23 20:58:45;;;;;;;4.10;3.70;;;;;;;23.44;50.89;100956.00;10390227;28;20482;-57
2023/06/23 21:03:46;;;;;;;3.58;3.25;;;;;;;23.35;51.08;100959.06;10384021;28;21543;-57
2023/06/23 21:08:48;;;;;;;3.85;3.55;;;;;;;23.33;51.36;100959.25;10388454;28;20073;-57
2023/06/23 21:13:50;;;;;;;4.55;4.13;;;;;;;23.28;51.21;100951.66;10391675;28;20045;-57
2023/06/23 21:18:51;;;;;;;5.10;4.20;;;;;;;23.22;51.76;100952.41;10388633;28;20472;-58
2023/06/23 21:23:57;;;;;;;5.53;4.82;;;;;;;23.19;51.99;100947.34;10383622;28;20164;-57
2023/06/23 21:28:58;;;;;;;6.20;5.28;;;;;;;23.16;52.04;100942.31;10387474;28;20098;-58
2023/06/23 21:34:00;;;;;;;8.82;7.50;;;;;;;23.12;52.50;100941.84;10390097;28;20052;-57
2023/06/23 21:39:02;;;;;;;7.18;6.13;;;;;;;23.10;52.55;100948.50;10383229;28;20052;-57
2023/06/23 21:44:04;;;;;;;5.37;4.83;;;;;;;23.06;52.66;100944.44;10400049;28;20053;-57
2023/06/23 21:49:05;;;;;;;5.63;4.78;;;;;;;23.01;52.77;100947.72;10393237;28;20149;-61
2023/06/23 21:54:07;;;;;;;5.18;4.50;;;;;;;22.92;53.18;100941.56;10393119;28;20052;-58
2023/06/23 21:59:08;;;;;;;4.80;4.40;;;;;;;22.89;53.29;100949.22;10395686;28;20836;-58
2023/06/23 22:04:10;;;;;;;5.15;4.65;;;;;;;22.82;54.08;100957.28;10384447;28;20049;-58
2023/06/23 22:09:11;;;;;;;5.60;5.07;;;;;;;22.82;54.04;100962.72;10391376;28;20064;-54
2023/06/23 22:14:16;;;;;;;6.50;5.70;;;;;;;22.81;54.05;100960.19;10378853;28;20053;-53
2023/06/23 22:19:18;;;;;;;5.72;5.13;;;;;;;22.77;54.35;100954.28;10392864;28;20179;-53
2023/06/23 22:24:20;;;;;;;5.38;4.57;;;;;;;22.74;54.32;100957.38;10392704;28;20107;-53
2023/06/23 22:29:21;;;;;;;5.28;4.38;;;;;;;22.73;54.38;100972.00;10395184;28;20064;-53
2023/06/23 22:34:22;;;;;;;4.85;4.35;;;;;;;22.71;55.07;100971.31;10377644;28;20132;-53
2023/06/23 22:39:24;;;;;;;4.80;4.30;;;;;;;22.68;54.46;100977.94;10387988;28;20057;-54
2023/06/23 22:44:25;;;;;;;4.57;4.18;;;;;;;22.64;54.39;100976.66;10385999;28;20617;-53
2023/06/23 22:49:27;;;;;;;4.63;4.10;;;;;;;22.58;54.58;100970.09;10378273;28;20520;-53
2023/06/23 22:54:28;;;;;;;4.32;3.92;;;;;;;22.53;54.78;100975.25;10396495;28;20253;-53
2023/06/23 22:59:30;;;;;;;5.00;4.50;;;;;;;22.48;54.87;100971.38;10387044;28;20048;-53
2023/06/23 23:04:31;;;;;;;5.15;4.20;;;;;;;22.46;55.00;100973.41;10390782;28;20052;-53
2023/06/23 23:09:33;;;;;;;5.30;4.78;;;;;;;22.40;55.16;100969.59;10385181;28;20045;-52
2023/06/23 23:14:34;;;;;;;4.35;3.95;;;;;;;22.37;55.28;100964.56;10391482;28;20969;-52
2023/06/23 23:19:35;;;;;;;4.28;3.63;;;;;;;22.30;55.47;100963.56;10395653;28;20057;-53